createdAt,value
2017-07-07T00:00:18.947Z,0
2017-07-07T00:01:18.989Z,0
2017-07-07T00:02:19.036Z,0
2017-07-07T00:03:19.112Z,0
2017-07-07T00:04:19.152Z,0
2017-07-07T00:05:19.201Z,0
2017-07-07T00:06:18.963Z,0
2017-07-07T00:07:19.325Z,0
2017-07-07T00:08:19.369Z,0
2017-07-07T00:09:19.431Z,0
2017-07-07T00:10:19.522Z,0
2017-07-07T00:11:19.542Z,0
2017-07-07T00:12:19.597Z,0
2017-07-07T00:13:19.645Z,0
2017-07-07T00:14:19.404Z,0
2017-07-07T00:15:19.757Z,0
2017-07-07T00:16:19.827Z,0
2017-07-07T00:17:19.865Z,0
2017-07-07T00:18:19.928Z,0
2017-07-07T00:19:19.982Z,0
2017-07-07T00:20:20.039Z,0
2017-07-07T00:21:20.093Z,0
2017-07-07T00:22:19.832Z,0
2017-07-07T00:23:20.204Z,0
2017-07-07T00:24:20.270Z,0
2017-07-07T00:25:20.306Z,0
2017-07-07T00:26:20.372Z,0
2017-07-07T00:27:20.428Z,0
2017-07-07T00:28:20.491Z,0
2017-07-07T00:29:20.530Z,0
2017-07-07T00:30:20.287Z,0
2017-07-07T00:31:20.645Z,0
2017-07-07T00:32:20.394Z,0
2017-07-07T00:33:20.761Z,0
2017-07-07T00:34:20.830Z,0
2017-07-07T00:35:20.561Z,0
2017-07-07T00:36:20.616Z,0
2017-07-07T00:37:20.665Z,0
2017-07-07T00:38:20.725Z,0
2017-07-07T00:39:21.097Z,0
2017-07-07T00:40:21.153Z,0
2017-07-07T00:41:21.194Z,0
2017-07-07T00:42:20.945Z,0
2017-07-07T00:43:21.307Z,0
2017-07-07T00:44:21.371Z,0
2017-07-07T00:45:21.426Z,0
2017-07-07T00:46:20.860Z,0
2017-07-07T00:47:21.532Z,0
2017-07-07T00:48:21.589Z,0
2017-07-07T00:49:21.651Z,0
2017-07-07T00:50:21.392Z,0
2017-07-07T00:51:21.766Z,0
2017-07-07T00:52:21.491Z,0
2017-07-07T00:53:21.869Z,0
2017-07-07T00:54:21.917Z,0
2017-07-07T00:55:21.979Z,0
2017-07-07T00:56:22.037Z,0
2017-07-07T00:57:22.082Z,0
2017-07-07T00:58:22.138Z,0
2017-07-07T00:59:22.195Z,0
2017-07-07T01:00:22.265Z,0
2017-07-07T01:01:21.680Z,0
2017-07-07T01:02:22.361Z,0
2017-07-07T01:03:22.106Z,0
2017-07-07T01:04:22.479Z,0
2017-07-07T01:05:22.536Z,0
2017-07-07T01:06:22.575Z,0
2017-07-07T01:07:22.638Z,0
2017-07-07T01:08:22.703Z,0
2017-07-07T01:09:22.743Z,0
2017-07-07T01:10:22.812Z,0
2017-07-07T01:11:22.859Z,0
2017-07-07T01:12:22.603Z,0
2017-07-07T01:13:22.970Z,0
2017-07-07T01:14:23.031Z,0
2017-07-07T01:15:22.454Z,0
2017-07-07T01:16:23.135Z,0
2017-07-07T01:17:22.875Z,0
2017-07-07T01:18:23.239Z,0
2017-07-07T01:19:23.296Z,0
2017-07-07T01:20:23.346Z,0
2017-07-07T01:21:23.412Z,0
2017-07-07T01:22:22.844Z,0
2017-07-07T01:23:23.521Z,0
2017-07-07T01:24:23.267Z,0
2017-07-07T01:25:23.317Z,0
2017-07-07T01:26:23.690Z,0
2017-07-07T01:27:23.823Z,0
2017-07-07T01:28:23.793Z,0
2017-07-07T01:29:23.853Z,0
2017-07-07T01:30:23.910Z,0
2017-07-07T01:31:23.966Z,0
2017-07-07T01:32:24.022Z,0
2017-07-07T01:33:24.075Z,0
2017-07-07T01:34:24.134Z,0
2017-07-07T01:35:24.195Z,0
2017-07-07T01:36:24.303Z,0
2017-07-07T01:37:23.675Z,0
2017-07-07T01:38:24.035Z,0
2017-07-07T01:39:24.096Z,0
2017-07-07T01:40:24.161Z,0
2017-07-07T01:41:24.530Z,0
2017-07-07T01:42:24.577Z,0
2017-07-07T01:43:24.311Z,0
2017-07-07T01:44:24.369Z,0
2017-07-07T01:45:24.427Z,0
2017-07-07T01:46:24.483Z,0
2017-07-07T01:47:24.854Z,0
2017-07-07T01:48:24.915Z,0
2017-07-07T01:49:24.651Z,0
2017-07-07T01:50:25.014Z,0
2017-07-07T01:51:25.068Z,0
2017-07-07T01:52:25.130Z,0
2017-07-07T01:53:25.183Z,0
2017-07-07T01:54:24.930Z,0
2017-07-07T01:55:25.285Z,0
2017-07-07T01:56:25.353Z,0
2017-07-07T01:57:25.087Z,0
2017-07-07T01:58:25.450Z,0
2017-07-07T01:59:25.208Z,0
2017-07-07T02:00:25.258Z,0
2017-07-07T02:01:25.622Z,0
2017-07-07T02:02:25.372Z,0
2017-07-07T02:03:25.730Z,0
2017-07-07T02:04:25.788Z,0
2017-07-07T02:05:25.850Z,0
2017-07-07T02:06:25.900Z,0
2017-07-07T02:07:25.954Z,0
2017-07-07T02:08:25.699Z,0
2017-07-07T02:09:26.057Z,0
2017-07-07T02:10:25.819Z,0
2017-07-07T02:11:25.867Z,0
2017-07-07T02:12:26.226Z,0
2017-07-07T02:13:26.301Z,0
2017-07-07T02:14:26.335Z,0
2017-07-07T02:15:26.405Z,0
2017-07-07T02:16:26.453Z,0
2017-07-07T02:17:26.517Z,0
2017-07-07T02:18:26.565Z,0
2017-07-07T02:19:26.635Z,0
2017-07-07T02:20:26.680Z,0
2017-07-07T02:21:26.727Z,0
2017-07-07T02:22:26.476Z,0
2017-07-07T02:23:26.540Z,0
2017-07-07T02:24:26.891Z,0
2017-07-07T02:25:26.947Z,0
2017-07-07T02:26:27.007Z,0
2017-07-07T02:27:26.760Z,0
2017-07-07T02:28:27.121Z,0
2017-07-07T02:29:26.864Z,0
2017-07-07T02:30:27.228Z,0
2017-07-07T02:31:26.669Z,0
2017-07-07T02:32:27.028Z,0
2017-07-07T02:33:27.087Z,0
2017-07-07T02:34:27.450Z,0
2017-07-07T02:35:27.497Z,0
2017-07-07T02:36:27.247Z,0
2017-07-07T02:37:27.606Z,0
2017-07-07T02:38:27.664Z,0
2017-07-07T02:39:27.724Z,0
2017-07-07T02:40:27.470Z,0
2017-07-07T02:41:27.534Z,0
2017-07-07T02:42:27.896Z,0
2017-07-07T02:43:27.328Z,0
2017-07-07T02:44:27.697Z,0
2017-07-07T02:45:27.751Z,0
2017-07-07T02:46:27.808Z,0
2017-07-07T02:47:28.169Z,0
2017-07-07T02:48:27.919Z,0
2017-07-07T02:49:28.290Z,0
2017-07-07T02:50:28.343Z,0
2017-07-07T02:51:28.400Z,0
2017-07-07T02:52:28.130Z,0
2017-07-07T02:53:28.191Z,0
2017-07-07T02:54:28.248Z,0
2017-07-07T02:55:28.298Z,0
2017-07-07T02:56:28.673Z,0
2017-07-07T02:57:28.719Z,0
2017-07-07T02:58:28.777Z,0
2017-07-07T02:59:28.830Z,0
2017-07-07T03:00:28.882Z,0
2017-07-07T03:01:28.950Z,0
2017-07-07T03:02:29.000Z,0
2017-07-07T03:03:29.045Z,0
2017-07-07T03:04:29.107Z,0
2017-07-07T03:05:28.867Z,0
2017-07-07T03:06:29.220Z,0
2017-07-07T03:07:29.285Z,0
2017-07-07T03:08:29.340Z,0
2017-07-07T03:09:29.076Z,0
2017-07-07T03:10:29.135Z,0
2017-07-07T03:11:29.192Z,0
2017-07-07T03:12:29.555Z,0
2017-07-07T03:13:29.601Z,0
2017-07-07T03:14:29.669Z,0
2017-07-07T03:15:29.709Z,0
2017-07-07T03:16:29.763Z,0
2017-07-07T03:17:29.816Z,0
2017-07-07T03:18:29.883Z,4
2017-07-07T03:19:29.930Z,4
2017-07-07T03:20:29.986Z,0
2017-07-07T03:21:30.051Z,4
2017-07-07T03:22:29.481Z,4
2017-07-07T03:23:29.533Z,4
2017-07-07T03:24:30.219Z,4
2017-07-07T03:25:29.961Z,4
2017-07-07T03:26:30.317Z,4
2017-07-07T03:27:30.375Z,8
2017-07-07T03:28:30.428Z,8
2017-07-07T03:29:30.500Z,4
2017-07-07T03:30:30.546Z,8
2017-07-07T03:31:30.602Z,8
2017-07-07T03:32:30.347Z,12
2017-07-07T03:33:30.705Z,8
2017-07-07T03:34:30.455Z,8
2017-07-07T03:35:30.826Z,12
2017-07-07T03:36:30.881Z,12
2017-07-07T03:37:30.627Z,12
2017-07-07T03:38:30.679Z,16
2017-07-07T03:39:31.038Z,16
2017-07-07T03:40:31.139Z,20
2017-07-07T03:41:30.845Z,20
2017-07-07T03:42:31.209Z,20
2017-07-07T03:43:31.272Z,24
2017-07-07T03:44:31.325Z,24
2017-07-07T03:45:31.065Z,24
2017-07-07T03:46:31.434Z,28
2017-07-07T03:47:31.494Z,32
2017-07-07T03:48:31.543Z,32
2017-07-07T03:49:31.594Z,32
2017-07-07T03:50:31.648Z,36
2017-07-07T03:51:31.701Z,40
2017-07-07T03:52:31.751Z,44
2017-07-07T03:53:31.817Z,44
2017-07-07T03:54:31.868Z,44
2017-07-07T03:55:31.923Z,44
2017-07-07T03:56:31.972Z,48
2017-07-07T03:57:32.032Z,48
2017-07-07T03:58:32.089Z,52
2017-07-07T03:59:32.147Z,52
2017-07-07T04:00:32.204Z,56
2017-07-07T04:01:32.254Z,60
2017-07-07T04:02:32.305Z,64
2017-07-07T04:03:32.365Z,68
2017-07-07T04:04:32.109Z,72
2017-07-07T04:05:32.549Z,76
2017-07-07T04:06:32.524Z,76
2017-07-07T04:07:32.587Z,80
2017-07-07T04:08:32.646Z,76
2017-07-07T04:09:32.699Z,80
2017-07-07T04:10:32.759Z,84
2017-07-07T04:11:32.817Z,84
2017-07-07T04:12:32.854Z,92
2017-07-07T04:13:32.913Z,96
2017-07-07T04:14:32.655Z,96
2017-07-07T04:15:33.026Z,104
2017-07-07T04:16:33.084Z,104
2017-07-07T04:17:33.137Z,108
2017-07-07T04:18:33.188Z,108
2017-07-07T04:19:33.259Z,108
2017-07-07T04:20:33.298Z,112
2017-07-07T04:21:33.051Z,104
2017-07-07T04:22:32.799Z,104
2017-07-07T04:23:33.152Z,92
2017-07-07T04:24:33.221Z,92
2017-07-07T04:25:33.576Z,100
2017-07-07T04:26:33.645Z,108
2017-07-07T04:27:33.692Z,108
2017-07-07T04:28:33.745Z,112
2017-07-07T04:29:33.499Z,112
2017-07-07T04:30:33.542Z,116
2017-07-07T04:31:33.606Z,112
2017-07-07T04:32:33.669Z,108
2017-07-07T04:33:34.013Z,112
2017-07-07T04:34:34.068Z,108
2017-07-07T04:35:33.823Z,120
2017-07-07T04:36:34.187Z,128
2017-07-07T04:37:33.614Z,128
2017-07-07T04:38:34.312Z,128
2017-07-07T04:39:34.353Z,124
2017-07-07T04:40:34.098Z,128
2017-07-07T04:41:34.466Z,132
2017-07-07T04:42:34.205Z,136
2017-07-07T04:43:34.573Z,144
2017-07-07T04:44:34.642Z,160
2017-07-07T04:45:34.689Z,180
2017-07-07T04:46:34.732Z,180
2017-07-07T04:47:34.801Z,172
2017-07-07T04:48:34.847Z,156
2017-07-07T04:49:34.906Z,152
2017-07-07T04:50:34.952Z,160
2017-07-07T04:51:35.021Z,152
2017-07-07T04:52:35.063Z,140
2017-07-07T04:53:35.128Z,148
2017-07-07T04:54:35.175Z,140
2017-07-07T04:55:35.234Z,128
2017-07-07T04:56:35.291Z,112
2017-07-07T04:57:35.351Z,112
2017-07-07T04:58:35.402Z,124
2017-07-07T04:59:35.457Z,160
2017-07-07T05:00:35.574Z,180
2017-07-07T05:01:35.568Z,180
2017-07-07T05:02:35.318Z,188
2017-07-07T05:03:35.360Z,188
2017-07-07T05:04:35.734Z,168
2017-07-07T05:05:35.789Z,164
2017-07-07T05:06:35.539Z,156
2017-07-07T05:07:35.899Z,156
2017-07-07T05:08:35.954Z,148
2017-07-07T05:09:36.009Z,176
2017-07-07T05:10:36.064Z,168
2017-07-07T05:11:36.119Z,180
2017-07-07T05:12:36.176Z,192
2017-07-07T05:13:36.224Z,204
2017-07-07T05:14:36.284Z,208
2017-07-07T05:15:36.342Z,212
2017-07-07T05:16:36.090Z,224
2017-07-07T05:17:36.138Z,224
2017-07-07T05:18:36.193Z,224
2017-07-07T05:19:36.557Z,224
2017-07-07T05:20:36.301Z,228
2017-07-07T05:21:36.685Z,220
2017-07-07T05:22:36.420Z,220
2017-07-07T05:23:36.774Z,224
2017-07-07T05:24:36.534Z,228
2017-07-07T05:25:36.888Z,228
2017-07-07T05:26:36.638Z,228
2017-07-07T05:27:36.685Z,224
2017-07-07T05:28:37.059Z,224
2017-07-07T05:29:37.117Z,228
2017-07-07T05:30:36.554Z,236
2017-07-07T05:31:37.225Z,236
2017-07-07T05:32:37.277Z,244
2017-07-07T05:33:37.017Z,248
2017-07-07T05:34:36.773Z,252
2017-07-07T05:35:37.450Z,252
2017-07-07T05:36:37.506Z,256
2017-07-07T05:37:37.546Z,256
2017-07-07T05:38:37.610Z,260
2017-07-07T05:39:37.668Z,264
2017-07-07T05:40:37.418Z,268
2017-07-07T05:41:37.778Z,268
2017-07-07T05:42:37.527Z,272
2017-07-07T05:43:37.895Z,272
2017-07-07T05:44:37.633Z,256
2017-07-07T05:45:37.378Z,244
2017-07-07T05:46:37.743Z,268
2017-07-07T05:47:37.801Z,236
2017-07-07T05:48:37.879Z,252
2017-07-07T05:49:37.599Z,268
2017-07-07T05:50:38.273Z,292
2017-07-07T05:51:38.018Z,288
2017-07-07T05:52:38.077Z,300
2017-07-07T05:53:38.437Z,300
2017-07-07T05:54:38.498Z,300
2017-07-07T05:55:38.240Z,296
2017-07-07T05:56:38.299Z,300
2017-07-07T05:57:38.662Z,292
2017-07-07T05:58:38.722Z,296
2017-07-07T05:59:38.457Z,308
2017-07-07T06:00:38.821Z,320
2017-07-07T06:01:38.886Z,320
2017-07-07T06:02:38.641Z,328
2017-07-07T06:03:38.992Z,332
2017-07-07T06:04:39.046Z,332
2017-07-07T06:05:39.108Z,340
2017-07-07T06:06:38.848Z,340
2017-07-07T06:07:38.900Z,340
2017-07-07T06:08:39.271Z,340
2017-07-07T06:09:39.333Z,344
2017-07-07T06:10:39.385Z,344
2017-07-07T06:11:39.430Z,348
2017-07-07T06:12:39.498Z,328
2017-07-07T06:13:39.554Z,344
2017-07-07T06:14:39.601Z,364
2017-07-07T06:15:39.351Z,368
2017-07-07T06:16:39.717Z,364
2017-07-07T06:17:39.777Z,368
2017-07-07T06:18:39.824Z,372
2017-07-07T06:19:39.561Z,372
2017-07-07T06:20:39.939Z,372
2017-07-07T06:21:39.985Z,376
2017-07-07T06:22:39.730Z,376
2017-07-07T06:23:39.780Z,368
2017-07-07T06:24:40.160Z,336
2017-07-07T06:25:40.263Z,364
2017-07-07T06:26:40.270Z,376
2017-07-07T06:27:40.544Z,384
2017-07-07T06:28:53.752Z,356
2017-07-07T06:29:40.428Z,348
2017-07-07T06:30:40.475Z,336
2017-07-07T06:31:40.228Z,340
2017-07-07T06:32:40.900Z,404
2017-07-07T06:33:40.280Z,436
2017-07-07T06:34:40.721Z,432
2017-07-07T06:35:40.783Z,432
2017-07-07T06:36:40.503Z,432
2017-07-07T06:37:40.252Z,416
2017-07-07T06:38:40.300Z,416
2017-07-07T06:39:40.985Z,428
2017-07-07T06:40:41.036Z,388
2017-07-07T06:41:41.099Z,412
2017-07-07T06:42:41.159Z,444
2017-07-07T06:43:41.212Z,456
2017-07-07T06:44:40.949Z,460
2017-07-07T06:45:41.002Z,432
2017-07-07T06:46:41.369Z,352
2017-07-07T06:47:41.435Z,360
2017-07-07T06:48:41.478Z,396
2017-07-07T06:49:41.224Z,420
2017-07-07T06:50:41.591Z,412
2017-07-07T06:51:41.646Z,404
2017-07-07T06:52:41.701Z,392
2017-07-07T06:53:41.762Z,404
2017-07-07T06:54:41.862Z,412
2017-07-07T06:55:41.554Z,416
2017-07-07T06:56:41.924Z,420
2017-07-07T06:57:41.977Z,424
2017-07-07T06:58:42.029Z,428
2017-07-07T06:59:42.082Z,432
2017-07-07T07:00:41.832Z,432
2017-07-07T07:01:42.189Z,436
2017-07-07T07:02:42.247Z,436
2017-07-07T07:03:42.308Z,432
2017-07-07T07:04:42.373Z,444
2017-07-07T07:05:42.457Z,448
2017-07-07T07:06:56.117Z,452
2017-07-07T07:07:55.845Z,456
2017-07-07T07:08:42.266Z,460
2017-07-07T07:09:42.640Z,464
2017-07-07T07:10:42.687Z,472
2017-07-07T07:11:42.439Z,488
2017-07-07T07:12:42.692Z,508
2017-07-07T07:13:42.550Z,524
2017-07-07T07:14:42.608Z,524
2017-07-07T07:15:42.965Z,532
2017-07-07T07:16:42.711Z,540
2017-07-07T07:17:43.093Z,552
2017-07-07T07:18:43.151Z,568
2017-07-07T07:19:43.197Z,584
2017-07-07T07:20:43.243Z,600
2017-07-07T07:21:42.991Z,612
2017-07-07T07:22:43.363Z,612
2017-07-07T07:23:43.421Z,560
2017-07-07T07:24:43.471Z,632
2017-07-07T07:25:43.214Z,548
2017-07-07T07:26:43.582Z,620
2017-07-07T07:27:43.637Z,536
2017-07-07T07:28:43.701Z,660
2017-07-07T07:29:43.439Z,620
2017-07-07T07:30:43.803Z,660
2017-07-07T07:31:43.852Z,520
2017-07-07T07:32:43.605Z,532
2017-07-07T07:33:43.654Z,632
2017-07-07T07:34:44.021Z,620
2017-07-07T07:35:44.087Z,580
2017-07-07T07:36:44.133Z,512
2017-07-07T07:37:44.198Z,520
2017-07-07T07:38:44.248Z,528
2017-07-07T07:39:44.303Z,524
2017-07-07T07:40:44.349Z,612
2017-07-07T07:41:44.408Z,596
2017-07-07T07:42:44.155Z,604
2017-07-07T07:43:44.219Z,712
2017-07-07T07:44:44.587Z,656
2017-07-07T07:45:44.634Z,504
2017-07-07T07:46:44.897Z,504
2017-07-07T07:47:44.953Z,564
2017-07-07T07:48:44.799Z,500
2017-07-07T07:49:44.859Z,468
2017-07-07T07:50:44.602Z,472
2017-07-07T07:51:44.971Z,484
2017-07-07T07:52:44.925Z,492
2017-07-07T07:53:45.084Z,504
2017-07-07T07:54:45.134Z,512
2017-07-07T07:55:44.882Z,520
2017-07-07T07:56:45.247Z,532
2017-07-07T07:57:45.311Z,536
2017-07-07T07:58:45.049Z,532
2017-07-07T07:59:45.407Z,536
2017-07-07T08:00:45.157Z,560
2017-07-07T08:01:45.210Z,568
2017-07-07T08:02:45.262Z,664
2017-07-07T08:03:45.629Z,568
2017-07-07T08:04:45.380Z,568
2017-07-07T08:05:45.754Z,564
2017-07-07T08:06:45.799Z,596
2017-07-07T08:07:45.856Z,568
2017-07-07T08:08:45.906Z,556
2017-07-07T08:09:45.973Z,536
2017-07-07T08:10:46.022Z,524
2017-07-07T08:11:45.761Z,552
2017-07-07T08:12:45.812Z,528
2017-07-07T08:13:46.177Z,516
2017-07-07T08:14:45.616Z,608
2017-07-07T08:15:45.672Z,592
2017-07-07T08:16:46.352Z,548
2017-07-07T08:17:46.415Z,676
2017-07-07T08:18:45.841Z,456
2017-07-07T08:19:46.206Z,532
2017-07-07T08:20:46.784Z,556
2017-07-07T08:21:46.838Z,612
2017-07-07T08:22:46.677Z,544
2017-07-07T08:23:46.733Z,616
2017-07-07T08:24:46.475Z,616
2017-07-07T08:25:46.540Z,616
2017-07-07T08:26:46.590Z,616
2017-07-07T08:27:46.641Z,612
2017-07-07T08:28:47.013Z,612
2017-07-07T08:29:46.446Z,616
2017-07-07T08:30:47.131Z,620
2017-07-07T08:32:00.561Z,628
2017-07-07T08:32:47.253Z,636
2017-07-07T08:34:01.607Z,656
2017-07-07T08:34:47.346Z,660
2017-07-07T08:35:47.403Z,668
2017-07-07T08:37:00.841Z,676
2017-07-07T08:37:47.512Z,684
2017-07-07T08:38:47.567Z,680
2017-07-07T08:39:47.620Z,668
2017-07-07T08:40:47.681Z,668
2017-07-07T08:41:47.735Z,660
2017-07-07T08:42:47.480Z,664
2017-07-07T08:43:47.543Z,680
2017-07-07T08:44:47.900Z,632
2017-07-07T08:45:47.645Z,588
2017-07-07T08:46:47.707Z,624
2017-07-07T08:47:47.757Z,472
2017-07-07T08:48:48.118Z,652
2017-07-07T08:49:47.865Z,640
2017-07-07T08:50:48.228Z,636
2017-07-07T08:51:47.979Z,632
2017-07-07T08:52:48.347Z,628
2017-07-07T08:53:48.095Z,632
2017-07-07T08:54:48.457Z,628
2017-07-07T08:55:48.209Z,632
2017-07-07T08:56:48.575Z,632
2017-07-07T08:57:48.314Z,632
2017-07-07T08:58:48.373Z,632
2017-07-07T08:59:48.427Z,632
2017-07-07T09:00:48.993Z,636
2017-07-07T09:01:48.852Z,636
2017-07-07T09:02:48.904Z,640
2017-07-07T09:03:48.961Z,640
2017-07-07T09:04:48.703Z,644
2017-07-07T09:05:48.449Z,644
2017-07-07T09:06:49.136Z,644
2017-07-07T09:07:49.187Z,648
2017-07-07T09:08:49.236Z,648
2017-07-07T09:09:49.300Z,652
2017-07-07T09:10:49.349Z,656
2017-07-07T09:11:49.094Z,656
2017-07-07T09:12:49.150Z,660
2017-07-07T09:13:49.514Z,664
2017-07-07T09:14:49.563Z,668
2017-07-07T09:15:49.311Z,668
2017-07-07T09:16:49.681Z,676
2017-07-07T09:17:49.736Z,672
2017-07-07T09:18:49.481Z,672
2017-07-07T09:19:49.848Z,676
2017-07-07T09:20:49.898Z,676
2017-07-07T09:21:49.951Z,680
2017-07-07T09:22:49.701Z,684
2017-07-07T09:23:49.751Z,684
2017-07-07T09:24:49.814Z,684
2017-07-07T09:25:50.182Z,688
2017-07-07T09:26:50.238Z,692
2017-07-07T09:27:50.302Z,692
2017-07-07T09:28:50.037Z,700
2017-07-07T09:29:50.397Z,700
2017-07-07T09:30:50.454Z,704
2017-07-07T09:31:50.516Z,712
2017-07-07T09:32:50.582Z,712
2017-07-07T09:33:50.694Z,720
2017-07-07T09:34:50.686Z,720
2017-07-07T09:35:50.430Z,716
2017-07-07T09:36:50.791Z,672
2017-07-07T09:37:50.533Z,496
2017-07-07T09:38:50.901Z,620
2017-07-07T09:39:50.650Z,424
2017-07-07T09:40:51.012Z,496
2017-07-07T09:41:51.072Z,580
2017-07-07T09:42:51.136Z,592
2017-07-07T09:43:51.189Z,720
2017-07-07T09:44:51.243Z,792
2017-07-07T09:45:51.192Z,952
2017-07-07T09:46:51.039Z,524
2017-07-07T09:47:51.413Z,520
2017-07-07T09:48:51.454Z,716
2017-07-07T09:49:51.513Z,1096
2017-07-07T09:50:51.573Z,1140
2017-07-07T09:51:51.319Z,528
2017-07-07T09:52:51.681Z,400
2017-07-07T09:53:51.735Z,412
2017-07-07T09:54:51.800Z,408
2017-07-07T09:55:51.854Z,388
2017-07-07T09:56:51.903Z,356
2017-07-07T09:57:51.967Z,360
2017-07-07T09:58:52.017Z,400
2017-07-07T09:59:52.092Z,472
2017-07-07T10:00:52.126Z,536
2017-07-07T10:01:52.183Z,580
2017-07-07T10:02:52.239Z,576
2017-07-07T10:03:52.295Z,940
2017-07-07T10:04:52.039Z,648
2017-07-07T10:05:52.404Z,400
2017-07-07T10:06:52.468Z,344
2017-07-07T10:07:52.517Z,316
2017-07-07T10:08:52.264Z,300
2017-07-07T10:09:52.635Z,304
2017-07-07T10:10:52.374Z,372
2017-07-07T10:11:52.738Z,540
2017-07-07T10:12:52.799Z,624
2017-07-07T10:13:52.856Z,816
2017-07-07T10:14:52.918Z,668
2017-07-07T10:15:52.960Z,1068
2017-07-07T10:16:53.022Z,1076
2017-07-07T10:17:52.766Z,1040
2017-07-07T10:18:53.125Z,1020
2017-07-07T10:19:53.185Z,1092
2017-07-07T10:20:52.933Z,876
2017-07-07T10:21:53.288Z,1124
2017-07-07T10:22:53.036Z,1040
2017-07-07T10:23:52.785Z,1128
2017-07-07T10:24:53.468Z,1312
2017-07-07T10:25:53.526Z,1212
2017-07-07T10:26:53.567Z,1160
2017-07-07T10:27:53.634Z,904
2017-07-07T10:28:53.376Z,1020
2017-07-07T10:29:53.754Z,704
2017-07-07T10:30:53.790Z,580
2017-07-07T10:31:53.858Z,456
2017-07-07T10:32:53.912Z,372
2017-07-07T10:33:53.964Z,336
2017-07-07T10:34:53.707Z,340
2017-07-07T10:35:54.072Z,356
2017-07-07T10:36:54.127Z,380
2017-07-07T10:37:54.187Z,468
2017-07-07T10:38:54.236Z,636
2017-07-07T10:39:53.982Z,696
2017-07-07T10:40:54.353Z,960
2017-07-07T10:41:54.402Z,788
2017-07-07T10:42:54.463Z,620
2017-07-07T10:43:54.524Z,496
2017-07-07T10:44:54.567Z,416
2017-07-07T10:45:54.633Z,384
2017-07-07T10:46:54.693Z,380
2017-07-07T10:47:54.742Z,368
2017-07-07T10:48:54.482Z,340
2017-07-07T10:49:54.537Z,272
2017-07-07T10:50:54.593Z,232
2017-07-07T10:51:54.656Z,204
2017-07-07T10:52:54.715Z,188
2017-07-07T10:53:55.140Z,192
2017-07-07T10:54:54.505Z,184
2017-07-07T10:55:55.186Z,188
2017-07-07T10:56:55.242Z,184
2017-07-07T10:57:55.295Z,176
2017-07-07T10:58:55.355Z,176
2017-07-07T10:59:55.406Z,168
2017-07-07T11:00:55.464Z,160
2017-07-07T11:01:55.202Z,156
2017-07-07T11:02:55.587Z,184
2017-07-07T11:03:55.632Z,212
2017-07-07T11:04:55.379Z,232
2017-07-07T11:05:55.744Z,240
2017-07-07T11:06:55.486Z,284
2017-07-07T11:07:55.847Z,376
2017-07-07T11:08:55.909Z,512
2017-07-07T11:09:55.975Z,704
2017-07-07T11:10:56.019Z,896
2017-07-07T11:11:56.070Z,944
2017-07-07T11:12:56.120Z,908
2017-07-07T11:13:55.873Z,888
2017-07-07T11:14:56.239Z,804
2017-07-07T11:15:56.308Z,788
2017-07-07T11:16:56.413Z,776
2017-07-07T11:17:56.090Z,780
2017-07-07T11:18:56.257Z,816
2017-07-07T11:19:56.231Z,816
2017-07-07T11:20:56.609Z,772
2017-07-07T11:21:56.628Z,764
2017-07-07T11:22:56.674Z,780
2017-07-07T11:23:56.425Z,1060
2017-07-07T11:24:56.798Z,1088
2017-07-07T11:25:56.855Z,1164
2017-07-07T11:26:56.911Z,1036
2017-07-07T11:27:56.649Z,1004
2017-07-07T11:28:57.016Z,872
2017-07-07T11:29:56.762Z,1260
2017-07-07T11:30:56.813Z,1140
2017-07-07T11:31:57.202Z,872
2017-07-07T11:32:57.247Z,788
2017-07-07T11:33:56.985Z,988
2017-07-07T11:34:57.040Z,1052
2017-07-07T11:35:57.097Z,1148
2017-07-07T11:36:57.152Z,884
2017-07-07T11:37:57.520Z,1020
2017-07-07T11:38:57.268Z,780
2017-07-07T11:39:57.629Z,824
2017-07-07T11:40:57.369Z,740
2017-07-07T11:41:57.442Z,664
2017-07-07T11:42:57.804Z,600
2017-07-07T11:43:57.852Z,568
2017-07-07T11:44:57.901Z,540
2017-07-07T11:45:57.956Z,508
2017-07-07T11:46:57.713Z,516
2017-07-07T11:47:58.077Z,576
2017-07-07T11:48:58.136Z,656
2017-07-07T11:49:58.189Z,612
2017-07-07T11:50:57.933Z,648
2017-07-07T11:51:58.289Z,756
2017-07-07T11:52:58.349Z,844
2017-07-07T11:53:58.101Z,816
2017-07-07T11:54:58.474Z,684
2017-07-07T11:55:58.215Z,600
2017-07-07T11:56:58.583Z,672
2017-07-07T11:57:58.636Z,844
2017-07-07T11:58:58.692Z,456
2017-07-07T11:59:58.435Z,312
2017-07-07T12:00:59.051Z,256
2017-07-07T12:01:58.850Z,228
2017-07-07T12:02:58.914Z,224
2017-07-07T12:03:58.968Z,228
2017-07-07T12:04:59.026Z,232
2017-07-07T12:05:58.763Z,248
2017-07-07T12:06:58.822Z,236
2017-07-07T12:07:59.200Z,256
2017-07-07T12:08:59.252Z,280
2017-07-07T12:09:58.988Z,320
2017-07-07T12:10:59.049Z,360
2017-07-07T12:11:59.101Z,396
2017-07-07T12:12:58.853Z,448
2017-07-07T12:13:59.220Z,504
2017-07-07T12:14:59.585Z,456
2017-07-07T12:15:59.643Z,380
2017-07-07T12:16:59.689Z,344
2017-07-07T12:17:59.738Z,320
2017-07-07T12:18:59.803Z,332
2017-07-07T12:19:59.858Z,364
2017-07-07T12:20:59.910Z,368
2017-07-07T12:21:59.350Z,368
2017-07-07T12:22:59.403Z,356
2017-07-07T12:24:00.075Z,384
2017-07-07T12:25:00.138Z,424
2017-07-07T12:25:59.878Z,448
2017-07-07T12:27:00.256Z,360
2017-07-07T12:28:00.310Z,296
2017-07-07T12:29:00.058Z,272
2017-07-07T12:30:00.108Z,272
2017-07-07T12:31:00.477Z,264
2017-07-07T12:32:00.539Z,260
2017-07-07T12:33:00.582Z,260
2017-07-07T12:34:00.330Z,284
2017-07-07T12:35:00.688Z,308
2017-07-07T12:36:00.750Z,320
2017-07-07T12:37:00.809Z,320
2017-07-07T12:38:00.862Z,336
2017-07-07T12:39:00.300Z,304
2017-07-07T12:40:00.972Z,288
2017-07-07T12:41:01.023Z,284
2017-07-07T12:42:01.107Z,296
2017-07-07T12:43:00.836Z,324
2017-07-07T12:44:01.193Z,372
2017-07-07T12:45:00.632Z,356
2017-07-07T12:46:01.314Z,328
2017-07-07T12:47:01.367Z,424
2017-07-07T12:48:01.418Z,588
2017-07-07T12:49:01.473Z,512
2017-07-07T12:50:01.539Z,468
2017-07-07T12:51:01.588Z,608
2017-07-07T12:52:01.647Z,612
2017-07-07T12:53:01.693Z,660
2017-07-07T12:54:01.750Z,804
2017-07-07T12:55:01.499Z,792
2017-07-07T12:56:01.857Z,692
2017-07-07T12:57:01.923Z,616
2017-07-07T12:58:01.985Z,712
2017-07-07T12:59:02.039Z,728
2017-07-07T13:00:02.078Z,844
2017-07-07T13:01:02.142Z,784
2017-07-07T13:02:02.200Z,636
2017-07-07T13:03:02.256Z,568
2017-07-07T13:04:02.308Z,520
2017-07-07T13:05:02.050Z,500
2017-07-07T13:06:02.426Z,576
2017-07-07T13:07:02.482Z,476
2017-07-07T13:08:02.222Z,668
2017-07-07T13:09:02.271Z,612
2017-07-07T13:10:02.648Z,688
2017-07-07T13:11:02.391Z,752
2017-07-07T13:12:02.444Z,680
2017-07-07T13:13:02.806Z,488
2017-07-07T13:14:02.243Z,400
2017-07-07T13:15:02.614Z,372
2017-07-07T13:16:02.976Z,372
2017-07-07T13:17:03.029Z,392
2017-07-07T13:18:03.093Z,420
2017-07-07T13:19:03.142Z,448
2017-07-07T13:20:03.205Z,452
2017-07-07T13:21:03.245Z,432
2017-07-07T13:22:02.683Z,396
2017-07-07T13:23:02.736Z,336
2017-07-07T13:24:03.101Z,304
2017-07-07T13:25:03.493Z,348
2017-07-07T13:26:03.527Z,572
2017-07-07T13:27:03.281Z,676
2017-07-07T13:28:03.639Z,744
2017-07-07T13:29:03.388Z,936
2017-07-07T13:30:03.752Z,1252
2017-07-07T13:31:03.492Z,1140
2017-07-07T13:32:03.867Z,768
2017-07-07T13:33:03.606Z,920
2017-07-07T13:34:03.973Z,872
2017-07-07T13:35:04.029Z,868
2017-07-07T13:36:03.465Z,836
2017-07-07T13:37:03.830Z,912
2017-07-07T13:38:04.191Z,956
2017-07-07T13:39:04.267Z,904
2017-07-07T13:40:03.993Z,832
2017-07-07T13:41:04.060Z,848
2017-07-07T13:42:04.424Z,872
2017-07-07T13:43:04.524Z,816
2017-07-07T13:44:04.530Z,532
2017-07-07T13:45:04.593Z,596
2017-07-07T13:46:04.643Z,652
2017-07-07T13:47:04.076Z,640
2017-07-07T13:48:04.449Z,440
2017-07-07T13:49:04.498Z,428
2017-07-07T13:50:04.864Z,504
2017-07-07T13:51:04.919Z,636
2017-07-07T13:52:04.966Z,776
2017-07-07T13:53:04.717Z,736
2017-07-07T13:54:04.777Z,620
2017-07-07T13:55:04.839Z,660
2017-07-07T13:56:04.890Z,640
2017-07-07T13:57:05.252Z,836
2017-07-07T13:58:05.311Z,816
2017-07-07T13:59:05.368Z,792
2017-07-07T14:00:05.106Z,688
2017-07-07T14:01:05.479Z,788
2017-07-07T14:02:05.531Z,800